sensor_id;sensor_type;location;lat;lon;timestamp;P1;durP1;ratioP1;P2;durP2;ratioP2
22470;SDS011;11402;51.374;6.594;2023-04-28T00:00:47;10.15;;;6.65;;
22470;SDS011;11402;51.374;6.594;2023-04-28T00:03:13;14.48;;;7.88;;
22470;SDS011;11402;51.374;6.594;2023-04-28T00:05:39;11.70;;;7.00;;
22470;SDS011;11402;51.374;6.594;2023-04-28T00:08:05;12.02;;;8.20;;
22470;SDS011;11402;51.374;6.594;2023-04-28T00:10:31;11.48;;;7.03;;
22470;SDS011;11402;51.374;6.594;2023-04-28T00:12:57;11.68;;;7.95;;
22470;SDS011;11402;51.374;6.594;2023-04-28T00:15:23;10.57;;;8.43;;
22470;SDS011;11402;51.374;6.594;2023-04-28T00:17:48;12.90;;;7.75;;
22470;SDS011;11402;51.374;6.594;2023-04-28T00:20:14;12.05;;;7.82;;
22470;SDS011;11402;51.374;6.594;2023-04-28T00:22:40;12.40;;;7.75;;
22470;SDS011;11402;51.374;6.594;2023-04-28T00:25:06;13.15;;;8.23;;
22470;SDS011;11402;51.374;6.594;2023-04-28T00:27:33;14.18;;;7.72;;
22470;SDS011;11402;51.374;6.594;2023-04-28T00:29:59;12.10;;;8.02;;
22470;SDS011;11402;51.374;6.594;2023-04-28T00:32:25;11.00;;;7.68;;
22470;SDS011;11402;51.374;6.594;2023-04-28T00:34:51;11.82;;;8.85;;
22470;SDS011;11402;51.374;6.594;2023-04-28T00:37:17;12.02;;;8.65;;
22470;SDS011;11402;51.374;6.594;2023-04-28T00:39:43;13.00;;;8.25;;
22470;SDS011;11402;51.374;6.594;2023-04-28T00:42:12;11.65;;;8.02;;
22470;SDS011;11402;51.374;6.594;2023-04-28T00:44:38;15.68;;;9.07;;
22470;SDS011;11402;51.374;6.594;2023-04-28T00:47:04;12.95;;;8.52;;
22470;SDS011;11402;51.374;6.594;2023-04-28T00:49:31;14.52;;;8.35;;
22470;SDS011;11402;51.374;6.594;2023-04-28T00:51:58;13.32;;;8.77;;
22470;SDS011;11402;51.374;6.594;2023-04-28T00:54:28;12.32;;;8.68;;
22470;SDS011;11402;51.374;6.594;2023-04-28T00:56:54;14.20;;;8.63;;
22470;SDS011;11402;51.374;6.594;2023-04-28T00:59:21;11.70;;;8.15;;
22470;SDS011;11402;51.374;6.594;2023-04-28T01:01:46;13.00;;;8.57;;
22470;SDS011;11402;51.374;6.594;2023-04-28T01:04:12;13.15;;;9.10;;
22470;SDS011;11402;51.374;6.594;2023-04-28T01:06:40;15.20;;;9.30;;
22470;SDS011;11402;51.374;6.594;2023-04-28T01:09:06;13.48;;;8.85;;
22470;SDS011;11402;51.374;6.594;2023-04-28T01:11:32;15.02;;;9.60;;
22470;SDS011;11402;51.374;6.594;2023-04-28T01:13:57;14.05;;;10.05;;
22470;SDS011;11402;51.374;6.594;2023-04-28T01:16:24;12.93;;;9.35;;
22470;SDS011;11402;51.374;6.594;2023-04-28T01:18:50;14.05;;;9.73;;
22470;SDS011;11402;51.374;6.594;2023-04-28T01:21:24;14.40;;;9.48;;
22470;SDS011;11402;51.374;6.594;2023-04-28T01:23:52;14.50;;;10.18;;
22470;SDS011;11402;51.374;6.594;2023-04-28T01:26:17;15.15;;;10.77;;
22470;SDS011;11402;51.374;6.594;2023-04-28T01:28:43;14.07;;;9.65;;
22470;SDS011;11402;51.374;6.594;2023-04-28T01:31:08;15.18;;;10.15;;
22470;SDS011;11402;51.374;6.594;2023-04-28T01:33:34;13.75;;;10.57;;
22470;SDS011;11402;51.374;6.594;2023-04-28T01:36:00;17.50;;;10.75;;
22470;SDS011;11402;51.374;6.594;2023-04-28T01:38:26;16.35;;;10.75;;
22470;SDS011;11402;51.374;6.594;2023-04-28T01:40:53;16.75;;;11.20;;
22470;SDS011;11402;51.374;6.594;2023-04-28T01:43:19;16.88;;;11.02;;
22470;SDS011;11402;51.374;6.594;2023-04-28T01:45:44;15.85;;;10.90;;
22470;SDS011;11402;51.374;6.594;2023-04-28T01:48:10;15.13;;;10.77;;
22470;SDS011;11402;51.374;6.594;2023-04-28T01:50:36;14.18;;;11.40;;
22470;SDS011;11402;51.374;6.594;2023-04-28T01:53:01;15.05;;;10.65;;
22470;SDS011;11402;51.374;6.594;2023-04-28T01:55:27;16.83;;;11.93;;
22470;SDS011;11402;51.374;6.594;2023-04-28T01:57:52;16.75;;;11.43;;
22470;SDS011;11402;51.374;6.594;2023-04-28T02:00:18;14.32;;;11.40;;
22470;SDS011;11402;51.374;6.594;2023-04-28T02:02:43;15.40;;;10.88;;
22470;SDS011;11402;51.374;6.594;2023-04-28T02:05:09;18.33;;;11.80;;
22470;SDS011;11402;51.374;6.594;2023-04-28T02:07:36;14.45;;;10.88;;
22470;SDS011;11402;51.374;6.594;2023-04-28T02:10:01;17.05;;;11.95;;
22470;SDS011;11402;51.374;6.594;2023-04-28T02:12:27;17.55;;;11.70;;
22470;SDS011;11402;51.374;6.594;2023-04-28T02:14:52;16.23;;;12.05;;
22470;SDS011;11402;51.374;6.594;2023-04-28T02:17:18;16.55;;;11.68;;
22470;SDS011;11402;51.374;6.594;2023-04-28T02:19:43;15.60;;;10.85;;
22470;SDS011;11402;51.374;6.594;2023-04-28T02:22:09;16.10;;;11.38;;
22470;SDS011;11402;51.374;6.594;2023-04-28T02:24:35;15.60;;;11.98;;
22470;SDS011;11402;51.374;6.594;2023-04-28T02:27:02;16.02;;;11.35;;
22470;SDS011;11402;51.374;6.594;2023-04-28T02:29:29;17.17;;;11.48;;
22470;SDS011;11402;51.374;6.594;2023-04-28T02:31:55;19.00;;;11.43;;
22470;SDS011;11402;51.374;6.594;2023-04-28T02:34:21;14.05;;;10.80;;
22470;SDS011;11402;51.374;6.594;2023-04-28T02:36:46;16.52;;;11.63;;
22470;SDS011;11402;51.374;6.594;2023-04-28T02:39:12;16.00;;;11.50;;
22470;SDS011;11402;51.374;6.594;2023-04-28T02:41:38;16.63;;;11.68;;
22470;SDS011;11402;51.374;6.594;2023-04-28T02:44:03;17.27;;;11.40;;
22470;SDS011;11402;51.374;6.594;2023-04-28T02:46:29;17.35;;;11.73;;
22470;SDS011;11402;51.374;6.594;2023-04-28T02:48:55;17.48;;;11.70;;
22470;SDS011;11402;51.374;6.594;2023-04-28T02:51:20;17.00;;;12.20;;
22470;SDS011;11402;51.374;6.594;2023-04-28T02:53:46;16.95;;;12.05;;
22470;SDS011;11402;51.374;6.594;2023-04-28T02:56:11;16.98;;;12.52;;
22470;SDS011;11402;51.374;6.594;2023-04-28T02:58:37;16.75;;;12.23;;
22470;SDS011;11402;51.374;6.594;2023-04-28T03:01:02;17.58;;;11.48;;
22470;SDS011;11402;51.374;6.594;2023-04-28T03:03:28;17.77;;;11.93;;
22470;SDS011;11402;51.374;6.594;2023-04-28T03:05:54;16.75;;;11.40;;
22470;SDS011;11402;51.374;6.594;2023-04-28T03:08:20;17.55;;;11.75;;
22470;SDS011;11402;51.374;6.594;2023-04-28T03:10:46;18.65;;;10.68;;
22470;SDS011;11402;51.374;6.594;2023-04-28T03:13:12;17.05;;;10.70;;
22470;SDS011;11402;51.374;6.594;2023-04-28T03:15:37;13.23;;;10.82;;
22470;SDS011;11402;51.374;6.594;2023-04-28T03:18:03;14.95;;;10.10;;
22470;SDS011;11402;51.374;6.594;2023-04-28T03:20:28;16.17;;;10.48;;
22470;SDS011;11402;51.374;6.594;2023-04-28T03:22:54;15.05;;;10.85;;
22470;SDS011;11402;51.374;6.594;2023-04-28T03:25:20;14.32;;;10.55;;
22470;SDS011;11402;51.374;6.594;2023-04-28T03:27:45;16.60;;;10.95;;
22470;SDS011;11402;51.374;6.594;2023-04-28T03:30:11;15.38;;;10.13;;
22470;SDS011;11402;51.374;6.594;2023-04-28T03:32:38;13.65;;;10.25;;
22470;SDS011;11402;51.374;6.594;2023-04-28T03:35:03;16.27;;;10.30;;
22470;SDS011;11402;51.374;6.594;2023-04-28T03:37:29;15.88;;;10.27;;
22470;SDS011;11402;51.374;6.594;2023-04-28T03:39:54;12.43;;;10.10;;
22470;SDS011;11402;51.374;6.594;2023-04-28T03:42:20;16.90;;;10.43;;
22470;SDS011;11402;51.374;6.594;2023-04-28T03:44:46;15.73;;;10.18;;
22470;SDS011;11402;51.374;6.594;2023-04-28T03:47:11;12.60;;;10.02;;
22470;SDS011;11402;51.374;6.594;2023-04-28T03:49:37;13.13;;;10.18;;
22470;SDS011;11402;51.374;6.594;2023-04-28T03:52:02;16.23;;;10.23;;
22470;SDS011;11402;51.374;6.594;2023-04-28T03:54:28;15.75;;;10.35;;
22470;SDS011;11402;51.374;6.594;2023-04-28T03:56:54;14.77;;;10.93;;
22470;SDS011;11402;51.374;6.594;2023-04-28T03:59:19;17.13;;;10.93;;
22470;SDS011;11402;51.374;6.594;2023-04-28T04:01:45;15.15;;;10.55;;
22470;SDS011;11402;51.374;6.594;2023-04-28T04:04:10;17.58;;;11.35;;
22470;SDS011;11402;51.374;6.594;2023-04-28T04:06:36;14.40;;;11.00;;
22470;SDS011;11402;51.374;6.594;2023-04-28T04:09:01;15.32;;;11.10;;
22470;SDS011;11402;51.374;6.594;2023-04-28T04:11:27;16.08;;;11.80;;
22470;SDS011;11402;51.374;6.594;2023-04-28T04:13:52;16.02;;;11.98;;
22470;SDS011;11402;51.374;6.594;2023-04-28T04:16:18;17.88;;;11.35;;
22470;SDS011;11402;51.374;6.594;2023-04-28T04:18:43;18.67;;;11.15;;
22470;SDS011;11402;51.374;6.594;2023-04-28T04:21:09;17.70;;;11.75;;
22470;SDS011;11402;51.374;6.594;2023-04-28T04:23:35;20.23;;;11.48;;
22470;SDS011;11402;51.374;6.594;2023-04-28T04:26:00;15.52;;;11.18;;
22470;SDS011;11402;51.374;6.594;2023-04-28T04:28:26;16.25;;;11.48;;
22470;SDS011;11402;51.374;6.594;2023-04-28T04:30:51;17.48;;;11.73;;
22470;SDS011;11402;51.374;6.594;2023-04-28T04:33:17;16.13;;;11.25;;
22470;SDS011;11402;51.374;6.594;2023-04-28T04:35:42;17.20;;;12.13;;
22470;SDS011;11402;51.374;6.594;2023-04-28T04:38:08;18.35;;;10.82;;
22470;SDS011;11402;51.374;6.594;2023-04-28T04:40:34;17.55;;;10.95;;
22470;SDS011;11402;51.374;6.594;2023-04-28T04:43:00;16.48;;;11.27;;
22470;SDS011;11402;51.374;6.594;2023-04-28T04:45:26;22.02;;;12.02;;
22470;SDS011;11402;51.374;6.594;2023-04-28T04:47:51;16.65;;;10.85;;
22470;SDS011;11402;51.374;6.594;2023-04-28T04:50:17;18.58;;;12.07;;
22470;SDS011;11402;51.374;6.594;2023-04-28T04:52:43;19.00;;;12.18;;
22470;SDS011;11402;51.374;6.594;2023-04-28T04:55:08;16.70;;;11.73;;
22470;SDS011;11402;51.374;6.594;2023-04-28T04:57:35;18.20;;;11.32;;
22470;SDS011;11402;51.374;6.594;2023-04-28T05:00:01;19.42;;;12.02;;
22470;SDS011;11402;51.374;6.594;2023-04-28T05:02:28;15.63;;;10.93;;
22470;SDS011;11402;51.374;6.594;2023-04-28T05:04:54;13.77;;;10.23;;
22470;SDS011;11402;51.374;6.594;2023-04-28T05:07:19;16.33;;;9.93;;
22470;SDS011;11402;51.374;6.594;2023-04-28T05:09:45;15.90;;;9.63;;
22470;SDS011;11402;51.374;6.594;2023-04-28T05:12:11;14.20;;;10.15;;
22470;SDS011;11402;51.374;6.594;2023-04-28T05:14:36;16.92;;;9.90;;
22470;SDS011;11402;51.374;6.594;2023-04-28T05:17:02;16.45;;;10.50;;
22470;SDS011;11402;51.374;6.594;2023-04-28T05:19:28;13.65;;;10.15;;
22470;SDS011;11402;51.374;6.594;2023-04-28T05:21:53;16.52;;;10.15;;
22470;SDS011;11402;51.374;6.594;2023-04-28T05:24:22;15.63;;;10.45;;
22470;SDS011;11402;51.374;6.594;2023-04-28T05:26:51;16.35;;;10.73;;
22470;SDS011;11402;51.374;6.594;2023-04-28T05:29:18;13.90;;;10.02;;
22470;SDS011;11402;51.374;6.594;2023-04-28T05:31:44;20.33;;;11.02;;
22470;SDS011;11402;51.374;6.594;2023-04-28T05:34:09;17.40;;;10.75;;
22470;SDS011;11402;51.374;6.594;2023-04-28T05:36:35;21.42;;;11.30;;
22470;SDS011;11402;51.374;6.594;2023-04-28T05:39:01;15.20;;;10.68;;
22470;SDS011;11402;51.374;6.594;2023-04-28T05:41:27;17.25;;;11.18;;
22470;SDS011;11402;51.374;6.594;2023-04-28T05:43:52;16.10;;;11.32;;
22470;SDS011;11402;51.374;6.594;2023-04-28T05:46:18;17.27;;;10.77;;
22470;SDS011;11402;51.374;6.594;2023-04-28T05:48:44;15.50;;;11.20;;
22470;SDS011;11402;51.374;6.594;2023-04-28T05:51:10;17.58;;;11.20;;
22470;SDS011;11402;51.374;6.594;2023-04-28T05:53:35;14.48;;;10.57;;
22470;SDS011;11402;51.374;6.594;2023-04-28T05:56:01;13.95;;;10.45;;
22470;SDS011;11402;51.374;6.594;2023-04-28T05:58:27;18.63;;;10.73;;
22470;SDS011;11402;51.374;6.594;2023-04-28T06:00:53;16.77;;;10.40;;
22470;SDS011;11402;51.374;6.594;2023-04-28T06:03:19;15.68;;;11.32;;
22470;SDS011;11402;51.374;6.594;2023-04-28T06:05:45;15.07;;;11.25;;
22470;SDS011;11402;51.374;6.594;2023-04-28T06:08:10;20.83;;;12.65;;
22470;SDS011;11402;51.374;6.594;2023-04-28T06:10:36;15.55;;;10.30;;
22470;SDS011;11402;51.374;6.594;2023-04-28T06:13:01;13.77;;;10.70;;
22470;SDS011;11402;51.374;6.594;2023-04-28T06:15:29;15.65;;;10.40;;
22470;SDS011;11402;51.374;6.594;2023-04-28T06:17:54;16.08;;;10.50;;
22470;SDS011;11402;51.374;6.594;2023-04-28T06:20:20;15.23;;;10.10;;
22470;SDS011;11402;51.374;6.594;2023-04-28T06:22:45;14.02;;;10.45;;
22470;SDS011;11402;51.374;6.594;2023-04-28T06:25:11;24.73;;;11.70;;
22470;SDS011;11402;51.374;6.594;2023-04-28T06:27:37;17.55;;;10.27;;
22470;SDS011;11402;51.374;6.594;2023-04-28T06:30:03;12.75;;;9.63;;
22470;SDS011;11402;51.374;6.594;2023-04-28T06:32:28;15.77;;;10.15;;
22470;SDS011;11402;51.374;6.594;2023-04-28T06:34:54;16.45;;;9.85;;
22470;SDS011;11402;51.374;6.594;2023-04-28T06:37:19;15.85;;;9.95;;
22470;SDS011;11402;51.374;6.594;2023-04-28T06:39:45;14.80;;;8.80;;
22470;SDS011;11402;51.374;6.594;2023-04-28T06:42:11;12.52;;;9.20;;
22470;SDS011;11402;51.374;6.594;2023-04-28T06:44:37;14.63;;;9.32;;
22470;SDS011;11402;51.374;6.594;2023-04-28T06:47:02;16.25;;;9.73;;
22470;SDS011;11402;51.374;6.594;2023-04-28T06:49:28;14.15;;;9.45;;
22470;SDS011;11402;51.374;6.594;2023-04-28T06:51:54;14.90;;;9.35;;
22470;SDS011;11402;51.374;6.594;2023-04-28T06:54:19;15.15;;;9.70;;
22470;SDS011;11402;51.374;6.594;2023-04-28T06:56:45;12.77;;;8.60;;
22470;SDS011;11402;51.374;6.594;2023-04-28T06:59:10;14.90;;;9.23;;
22470;SDS011;11402;51.374;6.594;2023-04-28T07:01:36;14.38;;;9.50;;
22470;SDS011;11402;51.374;6.594;2023-04-28T07:04:02;12.88;;;8.55;;
22470;SDS011;11402;51.374;6.594;2023-04-28T07:06:27;11.32;;;8.77;;
22470;SDS011;11402;51.374;6.594;2023-04-28T07:08:53;15.20;;;8.40;;
22470;SDS011;11402;51.374;6.594;2023-04-28T07:11:19;13.48;;;8.75;;
22470;SDS011;11402;51.374;6.594;2023-04-28T07:13:45;16.30;;;9.60;;
22470;SDS011;11402;51.374;6.594;2023-04-28T07:16:13;15.90;;;9.05;;
22470;SDS011;11402;51.374;6.594;2023-04-28T07:18:39;10.88;;;9.10;;
22470;SDS011;11402;51.374;6.594;2023-04-28T07:21:05;12.45;;;9.07;;
22470;SDS011;11402;51.374;6.594;2023-04-28T07:23:30;13.05;;;9.60;;
22470;SDS011;11402;51.374;6.594;2023-04-28T07:25:56;12.50;;;9.27;;
22470;SDS011;11402;51.374;6.594;2023-04-28T07:28:22;14.38;;;9.80;;
22470;SDS011;11402;51.374;6.594;2023-04-28T07:30:48;14.82;;;10.00;;
22470;SDS011;11402;51.374;6.594;2023-04-28T07:33:13;13.82;;;10.20;;
22470;SDS011;11402;51.374;6.594;2023-04-28T07:35:39;13.48;;;9.20;;
22470;SDS011;11402;51.374;6.594;2023-04-28T07:38:05;15.63;;;9.50;;
22470;SDS011;11402;51.374;6.594;2023-04-28T07:40:30;12.45;;;9.38;;
22470;SDS011;11402;51.374;6.594;2023-04-28T07:42:56;14.25;;;9.55;;
22470;SDS011;11402;51.374;6.594;2023-04-28T07:45:21;14.38;;;9.32;;
22470;SDS011;11402;51.374;6.594;2023-04-28T07:47:47;12.82;;;9.05;;
22470;SDS011;11402;51.374;6.594;2023-04-28T07:50:13;12.98;;;8.98;;
22470;SDS011;11402;51.374;6.594;2023-04-28T07:52:38;13.95;;;9.13;;
22470;SDS011;11402;51.374;6.594;2023-04-28T07:55:04;15.75;;;9.27;;
22470;SDS011;11402;51.374;6.594;2023-04-28T07:57:30;13.52;;;8.82;;
22470;SDS011;11402;51.374;6.594;2023-04-28T07:59:55;13.07;;;8.70;;
22470;SDS011;11402;51.374;6.594;2023-04-28T08:02:21;10.77;;;8.25;;
22470;SDS011;11402;51.374;6.594;2023-04-28T08:04:47;16.00;;;8.27;;
22470;SDS011;11402;51.374;6.594;2023-04-28T08:07:13;13.45;;;8.55;;
22470;SDS011;11402;51.374;6.594;2023-04-28T08:09:38;12.30;;;8.65;;
22470;SDS011;11402;51.374;6.594;2023-04-28T08:12:06;13.75;;;9.13;;
22470;SDS011;11402;51.374;6.594;2023-04-28T08:14:32;15.30;;;8.63;;
22470;SDS011;11402;51.374;6.594;2023-04-28T08:16:58;12.95;;;8.75;;
22470;SDS011;11402;51.374;6.594;2023-04-28T08:19:23;13.38;;;8.25;;
22470;SDS011;11402;51.374;6.594;2023-04-28T08:21:49;14.35;;;8.63;;
22470;SDS011;11402;51.374;6.594;2023-04-28T08:24:15;16.85;;;9.90;;
22470;SDS011;11402;51.374;6.594;2023-04-28T08:26:40;13.00;;;9.35;;
22470;SDS011;11402;51.374;6.594;2023-04-28T08:29:06;13.07;;;9.55;;
22470;SDS011;11402;51.374;6.594;2023-04-28T08:31:31;15.02;;;10.48;;
22470;SDS011;11402;51.374;6.594;2023-04-28T08:33:57;12.32;;;8.80;;
22470;SDS011;11402;51.374;6.594;2023-04-28T08:36:22;12.20;;;8.55;;
22470;SDS011;11402;51.374;6.594;2023-04-28T08:38:50;10.90;;;8.90;;
22470;SDS011;11402;51.374;6.594;2023-04-28T08:41:17;15.18;;;9.15;;
22470;SDS011;11402;51.374;6.594;2023-04-28T08:43:43;13.35;;;9.55;;
22470;SDS011;11402;51.374;6.594;2023-04-28T08:46:09;14.68;;;9.95;;
22470;SDS011;11402;51.374;6.594;2023-04-28T08:48:39;12.35;;;8.63;;
22470;SDS011;11402;51.374;6.594;2023-04-28T08:51:07;12.10;;;9.52;;
22470;SDS011;11402;51.374;6.594;2023-04-28T08:53:37;12.00;;;9.65;;
22470;SDS011;11402;51.374;6.594;2023-04-28T08:56:06;15.30;;;9.88;;
22470;SDS011;11402;51.374;6.594;2023-04-28T08:58:35;14.82;;;9.15;;
22470;SDS011;11402;51.374;6.594;2023-04-28T09:01:03;13.65;;;9.32;;
22470;SDS011;11402;51.374;6.594;2023-04-28T09:03:29;16.40;;;10.32;;
22470;SDS011;11402;51.374;6.594;2023-04-28T09:05:57;31.80;;;26.05;;
22470;SDS011;11402;51.374;6.594;2023-04-28T09:08:23;31.40;;;21.77;;
22470;SDS011;11402;51.374;6.594;2023-04-28T09:11:04;14.43;;;9.57;;
22470;SDS011;11402;51.374;6.594;2023-04-28T09:13:31;17.37;;;10.47;;
22470;SDS011;11402;51.374;6.594;2023-04-28T09:16:01;13.55;;;10.30;;
22470;SDS011;11402;51.374;6.594;2023-04-28T09:18:28;14.07;;;10.02;;
22470;SDS011;11402;51.374;6.594;2023-04-28T09:21:06;16.80;;;9.73;;
22470;SDS011;11402;51.374;6.594;2023-04-28T09:23:33;14.48;;;9.48;;
22470;SDS011;11402;51.374;6.594;2023-04-28T09:26:10;16.20;;;9.50;;
22470;SDS011;11402;51.374;6.594;2023-04-28T09:28:35;13.30;;;9.80;;
22470;SDS011;11402;51.374;6.594;2023-04-28T09:31:01;12.18;;;9.48;;
22470;SDS011;11402;51.374;6.594;2023-04-28T09:33:27;11.25;;;8.82;;
22470;SDS011;11402;51.374;6.594;2023-04-28T09:35:53;22.45;;;16.35;;
22470;SDS011;11402;51.374;6.594;2023-04-28T09:38:20;12.45;;;10.10;;
22470;SDS011;11402;51.374;6.594;2023-04-28T09:40:59;12.02;;;9.88;;
22470;SDS011;11402;51.374;6.594;2023-04-28T09:43:29;13.90;;;10.35;;
22470;SDS011;11402;51.374;6.594;2023-04-28T09:45:58;42.88;;;27.73;;
22470;SDS011;11402;51.374;6.594;2023-04-28T09:48:25;15.90;;;12.27;;
22470;SDS011;11402;51.374;6.594;2023-04-28T09:50:56;14.80;;;11.63;;
22470;SDS011;11402;51.374;6.594;2023-04-28T09:53:23;16.52;;;10.27;;
22470;SDS011;11402;51.374;6.594;2023-04-28T09:55:51;16.23;;;10.43;;
22470;SDS011;11402;51.374;6.594;2023-04-28T09:58:20;14.57;;;10.48;;
22470;SDS011;11402;51.374;6.594;2023-04-28T10:00:54;15.38;;;10.32;;
22470;SDS011;11402;51.374;6.594;2023-04-28T10:03:24;16.73;;;10.57;;
22470;SDS011;11402;51.374;6.594;2023-04-28T10:05:51;16.50;;;11.38;;
22470;SDS011;11402;51.374;6.594;2023-04-28T10:08:21;15.68;;;11.70;;
22470;SDS011;11402;51.374;6.594;2023-04-28T10:10:48;18.55;;;11.50;;
22470;SDS011;11402;51.374;6.594;2023-04-28T10:13:17;18.23;;;12.70;;
22470;SDS011;11402;51.374;6.594;2023-04-28T10:15:44;23.77;;;17.77;;
22470;SDS011;11402;51.374;6.594;2023-04-28T10:18:11;16.10;;;13.43;;
22470;SDS011;11402;51.374;6.594;2023-04-28T10:20:44;18.00;;;14.18;;
22470;SDS011;11402;51.374;6.594;2023-04-28T10:25:59;20.25;;;15.05;;
22470;SDS011;11402;51.374;6.594;2023-04-28T10:28:26;18.38;;;14.15;;
22470;SDS011;11402;51.374;6.594;2023-04-28T10:31:11;22.50;;;14.98;;
22470;SDS011;11402;51.374;6.594;2023-04-28T10:33:39;20.20;;;14.38;;
22470;SDS011;11402;51.374;6.594;2023-04-28T10:36:05;17.20;;;14.63;;
22470;SDS011;11402;51.374;6.594;2023-04-28T10:38:32;21.25;;;16.08;;
22470;SDS011;11402;51.374;6.594;2023-04-28T10:40:58;21.67;;;16.60;;
22470;SDS011;11402;51.374;6.594;2023-04-28T10:56:10;17.10;;;14.45;;
22470;SDS011;11402;51.374;6.594;2023-04-28T10:58:40;21.77;;;16.33;;
22470;SDS011;11402;51.374;6.594;2023-04-28T11:06:41;18.70;;;14.93;;
22470;SDS011;11402;51.374;6.594;2023-04-28T11:11:36;18.30;;;16.10;;
22470;SDS011;11402;51.374;6.594;2023-04-28T11:16:49;18.95;;;16.80;;
22470;SDS011;11402;51.374;6.594;2023-04-28T11:19:19;20.02;;;15.32;;
22470;SDS011;11402;51.374;6.594;2023-04-28T11:21:49;17.73;;;15.55;;
22470;SDS011;11402;51.374;6.594;2023-04-28T11:24:16;20.50;;;17.38;;
22470;SDS011;11402;51.374;6.594;2023-04-28T11:26:43;17.80;;;16.00;;
22470;SDS011;11402;51.374;6.594;2023-04-28T11:29:09;19.25;;;16.35;;
22470;SDS011;11402;51.374;6.594;2023-04-28T11:31:35;20.38;;;16.50;;
22470;SDS011;11402;51.374;6.594;2023-04-28T11:34:05;18.23;;;15.85;;
22470;SDS011;11402;51.374;6.594;2023-04-28T11:36:37;17.73;;;15.80;;
22470;SDS011;11402;51.374;6.594;2023-04-28T11:39:07;16.10;;;14.48;;
22470;SDS011;11402;51.374;6.594;2023-04-28T11:41:34;16.73;;;14.15;;
22470;SDS011;11402;51.374;6.594;2023-04-28T11:44:14;15.50;;;13.85;;
22470;SDS011;11402;51.374;6.594;2023-04-28T11:46:45;17.48;;;14.95;;
22470;SDS011;11402;51.374;6.594;2023-04-28T11:49:14;19.85;;;16.58;;
22470;SDS011;11402;51.374;6.594;2023-04-28T11:51:40;18.05;;;15.23;;
22470;SDS011;11402;51.374;6.594;2023-04-28T11:54:07;16.92;;;14.82;;
22470;SDS011;11402;51.374;6.594;2023-04-28T11:56:38;16.50;;;14.77;;
22470;SDS011;11402;51.374;6.594;2023-04-28T11:59:09;16.33;;;14.05;;
22470;SDS011;11402;51.374;6.594;2023-04-28T12:01:46;15.85;;;14.18;;
22470;SDS011;11402;51.374;6.594;2023-04-28T12:04:25;14.25;;;12.55;;
22470;SDS011;11402;51.374;6.594;2023-04-28T12:09:41;13.07;;;11.77;;
22470;SDS011;11402;51.374;6.594;2023-04-28T12:12:09;14.98;;;13.10;;
22470;SDS011;11402;51.374;6.594;2023-04-28T12:14:58;12.27;;;10.98;;
22470;SDS011;11402;51.374;6.594;2023-04-28T12:17:34;13.43;;;11.95;;
22470;SDS011;11402;51.374;6.594;2023-04-28T12:20:06;12.48;;;11.18;;
22470;SDS011;11402;51.374;6.594;2023-04-28T12:22:45;13.05;;;11.65;;
22470;SDS011;11402;51.374;6.594;2023-04-28T12:25:13;16.05;;;12.27;;
22470;SDS011;11402;51.374;6.594;2023-04-28T12:27:44;12.07;;;10.73;;
22470;SDS011;11402;51.374;6.594;2023-04-28T12:30:30;11.43;;;10.15;;
22470;SDS011;11402;51.374;6.594;2023-04-28T12:32:57;11.93;;;10.68;;
22470;SDS011;11402;51.374;6.594;2023-04-28T12:35:23;12.02;;;10.82;;
22470;SDS011;11402;51.374;6.594;2023-04-28T12:37:50;10.38;;;9.45;;
22470;SDS011;11402;51.374;6.594;2023-04-28T12:40:17;10.50;;;9.40;;
22470;SDS011;11402;51.374;6.594;2023-04-28T12:42:43;11.00;;;9.85;;
22470;SDS011;11402;51.374;6.594;2023-04-28T12:45:08;8.93;;;8.00;;
22470;SDS011;11402;51.374;6.594;2023-04-28T12:47:35;9.38;;;8.40;;
22470;SDS011;11402;51.374;6.594;2023-04-28T12:50:01;9.23;;;8.32;;
22470;SDS011;11402;51.374;6.594;2023-04-28T12:52:27;11.27;;;10.18;;
22470;SDS011;11402;51.374;6.594;2023-04-28T12:54:52;9.38;;;8.48;;
22470;SDS011;11402;51.374;6.594;2023-04-28T12:57:18;9.45;;;8.18;;
22470;SDS011;11402;51.374;6.594;2023-04-28T12:59:44;11.02;;;9.10;;
22470;SDS011;11402;51.374;6.594;2023-04-28T13:02:12;10.18;;;9.15;;
22470;SDS011;11402;51.374;6.594;2023-04-28T13:04:38;10.48;;;8.90;;
22470;SDS011;11402;51.374;6.594;2023-04-28T13:07:06;10.32;;;9.32;;
22470;SDS011;11402;51.374;6.594;2023-04-28T13:09:32;9.10;;;8.20;;
22470;SDS011;11402;51.374;6.594;2023-04-28T13:11:58;8.63;;;7.82;;
22470;SDS011;11402;51.374;6.594;2023-04-28T13:14:24;9.80;;;8.25;;
22470;SDS011;11402;51.374;6.594;2023-04-28T13:16:51;8.35;;;7.47;;
22470;SDS011;11402;51.374;6.594;2023-04-28T13:19:16;9.00;;;7.82;;
22470;SDS011;11402;51.374;6.594;2023-04-28T13:21:42;7.28;;;6.57;;
22470;SDS011;11402;51.374;6.594;2023-04-28T13:24:08;9.60;;;7.35;;
22470;SDS011;11402;51.374;6.594;2023-04-28T13:26:35;7.30;;;6.60;;
22470;SDS011;11402;51.374;6.594;2023-04-28T13:29:02;9.20;;;6.78;;
22470;SDS011;11402;51.374;6.594;2023-04-28T13:31:28;10.10;;;6.70;;
22470;SDS011;11402;51.374;6.594;2023-04-28T13:33:54;7.40;;;6.20;;
22470;SDS011;11402;51.374;6.594;2023-04-28T13:36:20;7.10;;;6.40;;
22470;SDS011;11402;51.374;6.594;2023-04-28T13:38:47;8.23;;;6.65;;
22470;SDS011;11402;51.374;6.594;2023-04-28T13:41:16;7.15;;;5.63;;
22470;SDS011;11402;51.374;6.594;2023-04-28T13:43:42;6.10;;;5.40;;
22470;SDS011;11402;51.374;6.594;2023-04-28T13:46:08;7.40;;;5.25;;
22470;SDS011;11402;51.374;6.594;2023-04-28T13:48:34;8.55;;;5.00;;
22470;SDS011;11402;51.374;6.594;2023-04-28T13:51:00;5.45;;;4.65;;
22470;SDS011;11402;51.374;6.594;2023-04-28T13:53:27;7.43;;;4.32;;
22470;SDS011;11402;51.374;6.594;2023-04-28T13:55:53;5.72;;;4.40;;
22470;SDS011;11402;51.374;6.594;2023-04-28T13:58:22;4.60;;;4.10;;
22470;SDS011;11402;51.374;6.594;2023-04-28T14:00:51;6.95;;;4.05;;
22470;SDS011;11402;51.374;6.594;2023-04-28T14:03:18;4.22;;;3.72;;
22470;SDS011;11402;51.374;6.594;2023-04-28T14:05:45;4.68;;;3.95;;
22470;SDS011;11402;51.374;6.594;2023-04-28T14:08:22;7.97;;;4.38;;
22470;SDS011;11402;51.374;6.594;2023-04-28T14:10:48;5.13;;;4.43;;
22470;SDS011;11402;51.374;6.594;2023-04-28T14:13:17;5.97;;;4.28;;
22470;SDS011;11402;51.374;6.594;2023-04-28T14:15:43;3.83;;;3.40;;
22470;SDS011;11402;51.374;6.594;2023-04-28T14:18:09;3.85;;;3.20;;
22470;SDS011;11402;51.374;6.594;2023-04-28T14:20:35;3.28;;;2.97;;
22470;SDS011;11402;51.374;6.594;2023-04-28T14:23:01;3.65;;;2.30;;
22470;SDS011;11402;51.374;6.594;2023-04-28T14:25:27;5.38;;;2.67;;
22470;SDS011;11402;51.374;6.594;2023-04-28T14:27:53;3.47;;;2.42;;
22470;SDS011;11402;51.374;6.594;2023-04-28T14:30:19;3.58;;;2.70;;
22470;SDS011;11402;51.374;6.594;2023-04-28T14:32:45;5.20;;;2.03;;
22470;SDS011;11402;51.374;6.594;2023-04-28T14:35:12;2.53;;;2.03;;
22470;SDS011;11402;51.374;6.594;2023-04-28T14:37:38;2.90;;;2.15;;
22470;SDS011;11402;51.374;6.594;2023-04-28T14:40:04;2.50;;;2.03;;
22470;SDS011;11402;51.374;6.594;2023-04-28T14:42:31;2.35;;;2.15;;
22470;SDS011;11402;51.374;6.594;2023-04-28T14:45:00;2.83;;;2.30;;
22470;SDS011;11402;51.374;6.594;2023-04-28T14:47:33;2.60;;;2.33;;
22470;SDS011;11402;51.374;6.594;2023-04-28T14:49:59;4.72;;;3.05;;
22470;SDS011;11402;51.374;6.594;2023-04-28T14:52:25;3.95;;;3.22;;
22470;SDS011;11402;51.374;6.594;2023-04-28T14:54:51;5.80;;;4.00;;